Time;durP1;ratioP1;P1;durP2;ratioP2;P2;SDS_P1;SDS_P2;PMS_P1;PMS_P2;Temp;Humidity;BMP_temperature;BMP_pressure;BME280_temperature;BME280_humidity;BME280_pressure;Samples;Min_cycle;Max_cycle;Signal;HPM_P1;HPM_P2
2021/09/04 00:00:46;;;;;;;12.17;10.80;;;13.80;99.90;;;;;;5072746;28;20651;-82
2021/09/04 00:03:15;;;;;;;10.77;9.77;;;13.80;99.90;;;;;;5072776;28;20660;-82
2021/09/04 00:05:42;;;;;;;11.43;10.30;;;13.70;99.90;;;;;;5072157;28;20633;-82
2021/09/04 00:08:11;;;;;;;11.60;10.33;;;13.70;99.90;;;;;;5072623;28;21405;-82
2021/09/04 00:10:39;;;;;;;10.40;9.50;;;13.70;99.90;;;;;;5070380;28;20724;-82
2021/09/04 00:13:09;;;;;;;10.67;9.63;;;13.60;99.90;;;;;;5053654;28;20641;-82
2021/09/04 00:15:36;;;;;;;11.97;10.77;;;13.70;99.90;;;;;;5057615;28;20625;-82
2021/09/04 00:18:03;;;;;;;10.90;9.80;;;13.70;99.90;;;;;;5072851;28;20629;-82
2021/09/04 00:20:30;;;;;;;10.83;9.83;;;13.60;99.90;;;;;;5065287;28;20633;-82
2021/09/04 00:22:57;;;;;;;11.67;9.57;;;13.60;99.90;;;;;;5071453;28;21261;-82
2021/09/04 00:25:25;;;;;;;10.40;9.40;;;13.60;99.90;;;;;;5057557;28;20962;-81
2021/09/04 00:27:51;;;;;;;16.93;9.93;;;13.60;99.90;;;;;;5055448;28;20632;-82
2021/09/04 00:30:20;;;;;;;11.23;10.17;;;13.50;99.90;;;;;;5072990;28;21003;-81
2021/09/04 00:32:47;;;;;;;10.17;9.27;;;13.50;99.90;;;;;;5072059;28;20672;-81
2021/09/04 00:35:14;;;;;;;10.23;9.20;;;13.50;99.90;;;;;;5071507;28;20628;-81
2021/09/04 00:37:41;;;;;;;9.57;8.67;;;13.50;99.90;;;;;;5071418;28;20601;-81
2021/09/04 00:40:09;;;;;;;10.00;9.10;;;13.40;99.90;;;;;;5054932;28;21487;-80
2021/09/04 00:42:35;;;;;;;10.20;8.80;;;13.30;99.90;;;;;;5058771;28;20706;-81
2021/09/04 00:45:03;;;;;;;10.50;9.33;;;13.20;99.90;;;;;;5069540;28;20940;-80
2021/09/04 00:47:31;;;;;;;10.50;9.27;;;13.20;99.90;;;;;;5055392;28;21329;-80
2021/09/04 00:49:58;;;;;;;10.50;9.50;;;13.30;99.90;;;;;;5072230;28;20617;-80
2021/09/04 00:52:25;;;;;;;11.00;9.50;;;13.30;99.90;;;;;;5056480;28;20679;-81
2021/09/04 00:54:52;;;;;;;10.37;9.33;;;13.30;99.90;;;;;;5071173;28;20704;-80
2021/09/04 00:57:20;;;;;;;10.60;9.50;;;13.20;99.90;;;;;;5076355;28;20625;-80
2021/09/04 00:59:47;;;;;;;10.60;9.60;;;13.20;99.90;;;;;;5072011;28;21278;-81
2021/09/04 01:02:14;;;;;;;10.40;9.43;;;13.20;99.90;;;;;;5070805;28;20701;-81
2021/09/04 01:04:44;;;;;;;10.30;8.50;;;13.20;99.90;;;;;;5070532;28;20611;-81
2021/09/04 01:07:13;;;;;;;10.67;9.67;;;13.10;99.90;;;;;;5072312;28;20635;-80
2021/09/04 01:09:46;;;;;;;9.47;8.47;;;13.20;99.90;;;;;;5071316;28;20634;-81
2021/09/04 01:12:15;;;;;;;11.30;10.20;;;13.20;99.90;;;;;;5051580;28;20638;-81
2021/09/04 01:14:43;;;;;;;11.60;9.60;;;13.10;99.90;;;;;;5051634;28;20620;-80
2021/09/04 01:17:11;;;;;;;10.17;9.10;;;13.10;99.90;;;;;;5051679;28;20619;-81
2021/09/04 01:19:39;;;;;;;9.60;8.60;;;13.00;99.90;;;;;;5052057;28;21530;-80
2021/09/04 01:22:08;;;;;;;10.30;8.40;;;13.10;99.90;;;;;;5053219;28;20657;-80
2021/09/04 01:24:36;;;;;;;15.57;10.70;;;13.10;99.90;;;;;;5069691;28;20681;-80
2021/09/04 01:27:06;;;;;;;9.90;8.90;;;13.00;99.90;;;;;;5071720;28;20639;-80
2021/09/04 01:29:34;;;;;;;9.67;8.10;;;13.00;99.90;;;;;;5053705;28;20615;-80
2021/09/04 01:32:02;;;;;;;10.23;9.23;;;12.90;99.90;;;;;;5050646;28;20646;-81
2021/09/04 01:34:30;;;;;;;9.40;8.23;;;12.90;99.90;;;;;;5060904;28;20747;-81
2021/09/04 01:36:58;;;;;;;9.77;8.70;;;12.90;99.90;;;;;;5065110;28;21015;-80
2021/09/04 01:39:25;;;;;;;11.23;9.63;;;12.90;99.90;;;;;;5062051;28;20983;-80
2021/09/04 01:41:53;;;;;;;11.03;10.03;;;12.90;99.90;;;;;;5051370;28;20631;-80
2021/09/04 01:44:22;;;;;;;10.93;9.67;;;12.90;99.90;;;;;;5057584;28;20634;-81
2021/09/04 01:46:50;;;;;;;9.93;9.03;;;12.90;99.90;;;;;;5064448;28;20672;-81
2021/09/04 01:49:18;;;;;;;14.37;9.40;;;12.90;99.90;;;;;;5070738;28;20634;-80
2021/09/04 01:51:46;;;;;;;10.23;8.53;;;12.90;99.90;;;;;;5063165;28;20656;-80
2021/09/04 01:54:14;;;;;;;13.43;9.93;;;12.90;99.90;;;;;;5054775;28;20635;-81
2021/09/04 01:56:42;;;;;;;11.97;10.77;;;12.90;99.90;;;;;;5057302;28;20628;-80
2021/09/04 01:59:10;;;;;;;11.30;10.10;;;12.90;99.90;;;;;;5061571;28;20624;-80
2021/09/04 02:01:39;;;;;;;15.23;9.90;;;12.80;99.90;;;;;;5061053;28;20725;-80
2021/09/04 02:04:09;;;;;;;12.30;10.80;;;12.80;99.90;;;;;;5050430;28;20623;-81
2021/09/04 02:06:37;;;;;;;12.63;9.70;;;12.80;99.90;;;;;;5052398;28;20668;-80
2021/09/04 02:09:08;;;;;;;10.90;9.70;;;12.80;99.90;;;;;;5064220;28;21171;-80
2021/09/04 02:11:36;;;;;;;11.07;9.93;;;12.70;99.90;;;;;;5062736;28;20637;-80
2021/09/04 02:14:04;;;;;;;10.70;9.30;;;12.70;99.90;;;;;;5066193;28;20635;-80
2021/09/04 02:16:32;;;;;;;11.70;9.77;;;12.70;99.90;;;;;;5050581;28;20632;-80
2021/09/04 02:19:01;;;;;;;11.90;10.70;;;12.70;99.90;;;;;;5051093;28;21065;-79
2021/09/04 02:21:30;;;;;;;10.93;9.83;;;12.70;99.90;;;;;;5056821;28;20638;-79
2021/09/04 02:23:58;;;;;;;10.30;9.30;;;12.70;99.90;;;;;;5052313;28;20662;-80
2021/09/04 02:26:27;;;;;;;13.90;12.23;;;12.70;99.90;;;;;;5059315;28;20701;-79
2021/09/04 02:28:55;;;;;;;12.53;10.80;;;12.70;99.90;;;;;;5056383;28;20719;-80
2021/09/04 02:31:24;;;;;;;19.73;11.60;;;12.70;99.90;;;;;;5054224;28;20634;-79
2021/09/04 02:33:54;;;;;;;11.90;10.70;;;12.60;99.90;;;;;;5063801;28;20685;-80
2021/09/04 02:36:23;;;;;;;10.53;9.40;;;12.60;99.90;;;;;;5070525;28;20613;-79
2021/09/04 02:38:54;;;;;;;10.73;9.73;;;12.60;99.90;;;;;;5050091;28;21210;-79
2021/09/04 02:41:23;;;;;;;10.87;9.60;;;12.60;99.90;;;;;;5050313;28;20631;-79
2021/09/04 02:43:50;;;;;;;10.03;9.03;;;12.50;99.90;;;;;;5048579;28;20690;-79
2021/09/04 02:46:19;;;;;;;12.20;10.87;;;12.50;99.90;;;;;;5048877;28;20707;-79
2021/09/04 02:48:47;;;;;;;11.87;10.67;;;12.60;99.90;;;;;;5045801;28;20630;-80
2021/09/04 02:51:15;;;;;;;11.87;10.77;;;12.60;99.90;;;;;;5050258;28;20638;-79
2021/09/04 02:53:44;;;;;;;12.23;11.00;;;12.60;99.90;;;;;;5049660;28;20640;-79
2021/09/04 02:56:12;;;;;;;13.47;11.60;;;12.60;99.90;;;;;;5050025;28;20615;-79
2021/09/04 02:58:39;;;;;;;12.27;11.07;;;12.50;99.90;;;;;;5049724;28;20646;-79
2021/09/04 03:01:07;;;;;;;11.97;9.60;;;12.60;99.90;;;;;;5056478;28;20982;-79
2021/09/04 03:03:35;;;;;;;12.03;10.77;;;12.60;99.90;;;;;;5066928;28;20674;-79
2021/09/04 03:06:04;;;;;;;13.90;12.07;;;12.60;99.90;;;;;;5061793;28;20665;-79
2021/09/04 03:08:42;;;;;;;11.30;10.20;;;12.60;99.90;;;;;;5059962;28;20645;-79
2021/09/04 03:11:13;;;;;;;15.50;11.73;;;12.50;99.90;;;;;;5067692;28;20640;-79
2021/09/04 03:13:44;;;;;;;11.50;10.37;;;12.50;99.90;;;;;;5059713;28;20642;-79
2021/09/04 03:16:23;;;;;;;12.77;10.63;;;12.40;99.90;;;;;;5049934;28;20632;-79
2021/09/04 03:18:51;;;;;;;11.63;10.40;;;12.40;99.90;;;;;;5049837;28;20730;-79
2021/09/04 03:21:20;;;;;;;11.50;10.30;;;12.40;99.90;;;;;;5066089;28;20989;-79
2021/09/04 03:23:48;;;;;;;12.93;11.53;;;12.30;99.90;;;;;;5069678;28;20756;-79
2021/09/04 03:26:17;;;;;;;12.70;11.43;;;12.30;99.90;;;;;;5052657;28;21199;-79
2021/09/04 03:28:45;;;;;;;12.10;10.90;;;12.30;99.90;;;;;;5052285;28;20638;-79
2021/09/04 03:31:13;;;;;;;11.50;10.27;;;12.30;99.90;;;;;;5069729;28;20618;-79
2021/09/04 03:33:41;;;;;;;10.93;9.93;;;12.20;99.90;;;;;;5060696;28;21003;-80
2021/09/04 03:36:09;;;;;;;11.83;10.73;;;12.20;99.90;;;;;;5057903;28;20684;-79
2021/09/04 03:38:37;;;;;;;12.10;10.90;;;12.20;99.90;;;;;;5059767;28;20974;-79
2021/09/04 03:41:05;;;;;;;11.60;10.40;;;12.20;99.90;;;;;;5073547;28;20664;-79
2021/09/04 03:43:35;;;;;;;10.63;9.50;;;12.30;99.90;;;;;;5068168;28;20659;-80
2021/09/04 03:46:04;;;;;;;12.13;10.20;;;12.30;99.90;;;;;;5064964;28;20675;-79
2021/09/04 03:48:31;;;;;;;15.73;11.40;;;12.20;99.90;;;;;;5053359;28;20626;-79
2021/09/04 03:50:59;;;;;;;12.47;11.13;;;12.10;99.90;;;;;;5054628;28;20631;-79
2021/09/04 03:53:27;;;;;;;12.87;11.57;;;12.20;99.90;;;;;;5058078;28;20628;-79
2021/09/04 03:55:55;;;;;;;13.33;11.33;;;12.20;99.90;;;;;;5059994;28;20966;-79
2021/09/04 03:58:22;;;;;;;12.20;10.90;;;12.20;99.90;;;;;;5063986;28;20649;-79
2021/09/04 04:00:51;;;;;;;12.67;11.33;;;12.20;99.90;;;;;;5063064;28;20638;-79
2021/09/04 04:03:18;;;;;;;12.63;11.20;;;12.20;99.90;;;;;;5053609;28;20702;-79
2021/09/04 04:05:45;;;;;;;11.33;10.20;;;12.20;99.90;;;;;;5058807;28;20638;-79
2021/09/04 04:08:13;;;;;;;14.13;10.93;;;12.10;99.90;;;;;;5052555;28;21207;-79
2021/09/04 04:10:41;;;;;;;12.73;11.20;;;12.20;99.90;;;;;;5052806;28;21561;-79
2021/09/04 04:13:09;;;;;;;11.53;10.37;;;12.20;99.90;;;;;;5053172;28;20757;-79
2021/09/04 04:15:36;;;;;;;15.60;13.40;;;12.20;99.90;;;;;;5060028;28;20644;-79
2021/09/04 04:18:05;;;;;;;14.77;11.13;;;12.10;99.90;;;;;;5073252;28;20622;-79
2021/09/04 04:20:32;;;;;;;11.40;10.20;;;12.10;99.90;;;;;;5062683;28;20635;-79
2021/09/04 04:22:59;;;;;;;11.63;10.43;;;12.10;99.90;;;;;;5052973;28;20661;-79
2021/09/04 04:25:26;;;;;;;12.53;11.23;;;12.00;99.90;;;;;;5052002;28;21107;-79
2021/09/04 04:27:53;;;;;;;13.87;11.17;;;12.00;99.90;;;;;;5052097;28;21229;-79
2021/09/04 04:30:20;;;;;;;12.03;10.83;;;12.00;99.90;;;;;;5058946;28;21182;-79
2021/09/04 04:32:47;;;;;;;12.67;10.60;;;12.00;99.90;;;;;;5060730;28;20618;-79
2021/09/04 04:35:15;;;;;;;12.67;11.40;;;12.00;99.90;;;;;;5059213;28;20618;-79
2021/09/04 04:37:42;;;;;;;11.80;10.67;;;11.90;99.90;;;;;;5072886;28;20749;-79
2021/09/04 04:40:10;;;;;;;11.70;10.60;;;11.90;99.90;;;;;;5056470;28;20628;-79
2021/09/04 04:42:37;;;;;;;11.33;10.20;;;11.90;99.90;;;;;;5063717;28;20613;-79
2021/09/04 04:45:05;;;;;;;12.50;11.00;;;11.90;99.90;;;;;;5062239;28;20630;-79
2021/09/04 04:47:33;;;;;;;12.83;10.80;;;11.90;99.90;;;;;;5052626;28;20628;-78
2021/09/04 04:50:00;;;;;;;16.00;11.33;;;11.90;99.90;;;;;;5056313;28;21201;-79
2021/09/04 04:52:29;;;;;;;13.10;11.90;;;11.90;99.90;;;;;;5050650;28;20800;-79
2021/09/04 04:54:56;;;;;;;14.53;12.90;;;11.80;99.90;;;;;;5065298;28;20632;-79
2021/09/04 04:57:22;;;;;;;13.60;12.20;;;11.90;99.90;;;;;;5070480;28;21401;-79
2021/09/04 04:59:49;;;;;;;13.87;12.27;;;11.90;99.90;;;;;;5055669;28;20622;-79
2021/09/04 05:02:16;;;;;;;13.70;12.07;;;11.90;99.90;;;;;;5068494;28;20653;-78
2021/09/04 05:04:43;;;;;;;14.70;11.77;;;11.90;99.90;;;;;;5060069;28;20660;-79
2021/09/04 05:07:10;;;;;;;15.17;12.80;;;11.90;99.90;;;;;;5053602;28;21015;-79
2021/09/04 05:09:38;;;;;;;14.13;12.43;;;12.00;99.90;;;;;;5061727;28;20691;-78
2021/09/04 05:12:06;;;;;;;16.33;14.00;;;12.00;99.90;;;;;;5072612;28;20614;-79
2021/09/04 05:14:33;;;;;;;15.57;12.83;;;12.10;99.90;;;;;;5061622;28;20630;-80
2021/09/04 05:17:00;;;;;;;16.43;13.43;;;12.10;99.90;;;;;;5057284;28;21221;-80
2021/09/04 05:19:30;;;;;;;13.50;11.73;;;12.20;99.90;;;;;;5071930;28;20981;-80
2021/09/04 05:21:57;;;;;;;15.00;13.40;;;12.20;99.90;;;;;;5051701;28;20968;-80
2021/09/04 05:24:24;;;;;;;17.37;13.90;;;12.30;99.90;;;;;;5048647;28;20666;-80
2021/09/04 05:26:52;;;;;;;14.27;12.80;;;12.30;99.90;;;;;;5051092;28;20983;-80
2021/09/04 05:29:19;;;;;;;13.87;12.43;;;12.30;99.90;;;;;;5051312;28;20626;-80
2021/09/04 05:31:46;;;;;;;14.77;13.20;;;12.40;99.90;;;;;;5066465;28;20629;-80
2021/09/04 05:34:13;;;;;;;14.90;12.67;;;12.50;99.90;;;;;;5050202;28;20651;-80
2021/09/04 05:36:40;;;;;;;16.47;12.03;;;12.50;99.90;;;;;;5067892;28;21214;-80
2021/09/04 05:39:07;;;;;;;15.10;11.90;;;12.50;99.90;;;;;;5050023;28;20645;-80
2021/09/04 05:41:34;;;;;;;14.40;12.90;;;12.60;99.90;;;;;;5062059;28;20721;-80
2021/09/04 05:44:02;;;;;;;15.70;13.30;;;12.70;99.90;;;;;;5062861;28;20651;-80
2021/09/04 05:46:29;;;;;;;15.93;12.80;;;12.70;99.90;;;;;;5051432;28;20670;-80
2021/09/04 05:48:56;;;;;;;15.77;12.97;;;12.70;99.90;;;;;;5055760;28;20702;-80
2021/09/04 05:51:22;;;;;;;16.23;14.10;;;12.80;99.90;;;;;;5057896;28;20665;-80
2021/09/04 05:53:49;;;;;;;13.37;11.97;;;12.90;99.90;;;;;;5053312;28;20715;-80
2021/09/04 05:56:16;;;;;;;15.33;13.73;;;12.90;99.90;;;;;;5067040;28;20654;-80
2021/09/04 05:58:43;;;;;;;14.77;13.23;;;13.00;99.90;;;;;;5069731;28;20614;-80
2021/09/04 06:01:11;;;;;;;12.90;11.60;;;13.10;99.90;;;;;;5055948;28;20715;-80
2021/09/04 06:03:39;;;;;;;14.27;12.67;;;13.10;99.90;;;;;;5059532;28;21242;-80
2021/09/04 06:06:05;;;;;;;15.00;12.70;;;13.20;99.90;;;;;;5069024;28;20717;-80
2021/09/04 06:08:33;;;;;;;14.90;13.43;;;13.20;99.90;;;;;;5050034;28;20681;-79
2021/09/04 06:10:59;;;;;;;17.27;13.37;;;13.20;99.90;;;;;;5059465;28;20680;-80
2021/09/04 06:13:28;;;;;;;14.50;13.00;;;13.20;99.90;;;;;;5055081;28;20660;-81
2021/09/04 06:15:55;;;;;;;15.70;13.20;;;13.50;99.90;;;;;;5070860;28;20618;-80
2021/09/04 06:18:23;;;;;;;14.63;13.20;;;13.60;99.90;;;;;;5053656;28;20729;-79
2021/09/04 06:20:50;;;;;;;17.40;13.70;;;13.70;99.90;;;;;;5049169;28;20695;-80
2021/09/04 06:23:17;;;;;;;15.47;13.80;;;13.80;99.90;;;;;;5064612;28;20740;-80
2021/09/04 06:25:44;;;;;;;14.13;12.73;;;13.90;99.90;;;;;;5057319;28;20625;-79
2021/09/04 06:28:11;;;;;;;18.27;15.20;;;14.00;99.90;;;;;;5050034;28;20680;-80
2021/09/04 06:30:38;;;;;;;14.40;12.93;;;14.10;99.90;;;;;;5060194;28;20617;-79
2021/09/04 06:33:05;;;;;;;19.90;14.17;;;14.20;99.90;;;;;;5056986;28;21176;-79
2021/09/04 06:35:33;;;;;;;14.40;12.87;;;14.40;99.90;;;;;;5058486;28;20702;-79
2021/09/04 06:38:00;;;;;;;13.70;12.30;;;14.50;99.90;;;;;;5068958;28;21226;-80
2021/09/04 06:40:27;;;;;;;17.03;14.13;;;14.70;99.90;;;;;;5059076;28;21053;-80
2021/09/04 06:42:53;;;;;;;17.33;13.60;;;14.70;99.90;;;;;;5047351;28;20691;-80
2021/09/04 06:45:21;;;;;;;14.60;13.10;;;14.80;99.90;;;;;;5056403;28;20668;-80
2021/09/04 06:47:47;;;;;;;14.60;13.30;;;14.90;99.90;;;;;;5059850;28;20661;-80
2021/09/04 06:50:14;;;;;;;14.73;12.50;;;15.00;99.90;;;;;;5050906;28;20630;-80
2021/09/04 06:52:43;;;;;;;14.33;12.87;;;15.10;99.90;;;;;;5056509;28;20661;-79
2021/09/04 06:55:10;;;;;;;13.67;12.27;;;15.10;99.90;;;;;;5061450;28;20690;-80
2021/09/04 06:57:37;;;;;;;13.43;12.00;;;15.30;99.90;;;;;;5064756;28;20973;-80
2021/09/04 07:00:04;;;;;;;13.90;12.57;;;15.30;99.90;;;;;;5054597;28;20676;-79
2021/09/04 07:02:31;;;;;;;13.10;11.70;;;15.40;99.90;;;;;;5063383;28;20701;-80
2021/09/04 07:04:58;;;;;;;12.70;11.50;;;15.50;99.90;;;;;;5068154;28;20727;-79
2021/09/04 07:07:25;;;;;;;12.30;11.00;;;15.70;99.90;;;;;;5066704;28;20732;-80
2021/09/04 07:09:53;;;;;;;15.20;11.93;;;15.80;99.90;;;;;;5050470;28;20661;-80
2021/09/04 07:12:21;;;;;;;14.23;12.17;;;15.80;99.90;;;;;;5048318;28;20998;-80
2021/09/04 07:14:48;;;;;;;13.03;11.73;;;16.00;99.90;;;;;;5048999;28;20721;-79
2021/09/04 07:17:14;;;;;;;14.00;12.07;;;16.10;99.90;;;;;;5048986;28;20748;-80
2021/09/04 07:19:41;;;;;;;13.67;12.13;;;16.20;99.90;;;;;;5049432;28;20626;-80
2021/09/04 07:22:08;;;;;;;13.43;12.13;;;16.40;99.90;;;;;;5049730;28;20745;-80
2021/09/04 07:24:35;;;;;;;14.77;12.40;;;16.40;99.90;;;;;;5049219;28;21281;-80
2021/09/04 07:27:03;;;;;;;13.70;11.57;;;16.40;99.90;;;;;;5049808;28;20649;-80
2021/09/04 07:29:30;;;;;;;12.67;11.33;;;16.50;99.90;;;;;;5050077;28;20609;-80
2021/09/04 07:31:58;;;;;;;13.20;10.63;;;16.50;99.90;;;;;;5053079;28;20625;-80
2021/09/04 07:34:24;;;;;;;15.60;13.30;;;16.60;99.90;;;;;;5069394;28;20613;-80
2021/09/04 07:36:51;;;;;;;13.10;10.80;;;16.70;99.90;;;;;;5070073;28;20661;-80
2021/09/04 07:39:18;;;;;;;12.10;10.50;;;16.80;99.90;;;;;;5070089;28;20649;-80
2021/09/04 07:41:45;;;;;;;12.90;11.07;;;16.90;99.90;;;;;;5069503;28;20659;-80
2021/09/04 07:44:13;;;;;;;11.27;10.17;;;16.90;99.90;;;;;;5069423;28;20733;-80
2021/09/04 07:46:40;;;;;;;11.83;10.50;;;17.00;99.90;;;;;;5069847;28;20634;-81
2021/09/04 07:49:07;;;;;;;10.90;9.90;;;17.20;99.90;;;;;;5069893;28;20720;-80
2021/09/04 07:51:34;;;;;;;12.40;10.20;;;17.20;99.90;;;;;;5069800;28;20634;-80
2021/09/04 07:54:01;;;;;;;11.33;9.47;;;17.30;99.90;;;;;;5069344;28;20628;-80
2021/09/04 07:56:28;;;;;;;11.13;9.87;;;17.50;99.70;;;;;;5068937;28;20687;-82
2021/09/04 07:58:55;;;;;;;10.10;8.97;;;17.60;99.00;;;;;;5069867;28;20611;-82
2021/09/04 08:01:23;;;;;;;11.00;9.50;;;17.60;99.40;;;;;;5069726;28;20663;-81
2021/09/04 08:03:50;;;;;;;10.20;9.10;;;17.60;98.80;;;;;;5069210;28;20613;-81
2021/09/04 08:06:17;;;;;;;11.43;10.20;;;17.80;99.10;;;;;;5070127;28;20612;-81
2021/09/04 08:08:44;;;;;;;9.97;8.97;;;18.00;98.40;;;;;;5069477;28;20678;-81
2021/09/04 08:11:11;;;;;;;10.00;8.93;;;18.10;98.20;;;;;;5069690;28;20664;-81
2021/09/04 08:13:37;;;;;;;9.40;8.50;;;18.20;98.10;;;;;;5069494;28;21156;-80
2021/09/04 08:16:05;;;;;;;10.60;9.40;;;18.30;97.30;;;;;;5073313;28;20655;-81
2021/09/04 08:18:33;;;;;;;10.20;9.07;;;18.40;97.50;;;;;;5073346;28;20611;-81
2021/09/04 08:21:01;;;;;;;9.47;8.50;;;18.50;98.10;;;;;;5072618;28;21040;-81
2021/09/04 08:23:28;;;;;;;9.93;7.83;;;18.60;97.30;;;;;;5052124;28;20605;-81
2021/09/04 08:25:55;;;;;;;8.80;7.93;;;18.70;97.00;;;;;;5052828;28;20669;-82
2021/09/04 08:28:22;;;;;;;9.53;8.60;;;18.80;97.20;;;;;;5053204;28;20617;-81
2021/09/04 08:30:49;;;;;;;9.93;8.83;;;18.90;96.40;;;;;;5053182;28;20690;-82
2021/09/04 08:33:18;;;;;;;10.17;8.47;;;18.80;97.30;;;;;;5066482;28;20618;-82
2021/09/04 08:35:46;;;;;;;11.57;8.10;;;18.90;97.00;;;;;;5072146;28;20619;-82
2021/09/04 08:38:13;;;;;;;16.30;13.30;;;19.10;96.60;;;;;;5072994;28;20612;-82
2021/09/04 08:40:41;;;;;;;13.10;11.53;;;19.20;97.20;;;;;;5073000;28;20664;-82
2021/09/04 08:43:09;;;;;;;9.83;8.40;;;19.30;97.00;;;;;;5068992;28;21491;-81
2021/09/04 08:45:36;;;;;;;9.20;8.30;;;19.30;96.70;;;;;;5072297;28;21259;-82
2021/09/04 08:48:04;;;;;;;7.47;6.73;;;19.40;95.10;;;;;;5072807;28;20625;-81
2021/09/04 08:50:31;;;;;;;8.87;8.03;;;19.60;94.60;;;;;;5068648;28;20649;-82
2021/09/04 08:53:00;;;;;;;11.43;7.30;;;19.60;94.20;;;;;;5072924;28;20625;-82
2021/09/04 08:55:27;;;;;;;8.57;7.77;;;19.60;94.40;;;;;;5072099;28;20622;-82
2021/09/04 08:57:56;;;;;;;7.80;7.03;;;19.70;94.30;;;;;;5072652;28;20610;-82
2021/09/04 09:00:30;;;;;;;8.80;7.60;;;19.80;94.40;;;;;;5072651;28;20706;-82
2021/09/04 09:02:58;;;;;;;8.33;7.53;;;19.90;94.40;;;;;;5072015;28;21219;-82
2021/09/04 09:05:25;;;;;;;7.60;6.90;;;20.00;94.40;;;;;;5072108;28;20754;-81
2021/09/04 09:07:52;;;;;;;8.53;7.60;;;20.10;93.40;;;;;;5072195;28;20657;-82
2021/09/04 09:10:38;;;;;;;9.23;7.07;;;20.20;93.40;;;;;;5072460;28;20637;-81
2021/09/04 09:13:08;;;;;;;7.83;7.07;;;20.30;92.40;;;;;;5071149;28;20709;-82
2021/09/04 09:15:38;;;;;;;8.27;7.57;;;20.40;93.20;;;;;;5061671;28;20672;-82
2021/09/04 09:18:09;;;;;;;6.93;6.23;;;20.40;92.70;;;;;;5065863;28;20698;-80
2021/09/04 09:20:36;;;;;;;8.87;7.63;;;20.50;92.70;;;;;;5057102;28;20685;-82
2021/09/04 09:23:25;;;;;;;7.00;6.40;;;20.70;92.40;;;;;;5063644;28;20668;-83
2021/09/04 09:25:54;;;;;;;10.33;7.30;;;20.80;92.50;;;;;;5058104;28;20656;-82
2021/09/04 09:28:22;;;;;;;9.03;7.13;;;20.60;92.40;;;;;;5052177;28;20627;-82
2021/09/04 09:30:52;;;;;;;6.90;6.30;;;20.80;92.80;;;;;;5052155;28;20651;-82
2021/09/04 09:33:21;;;;;;;7.00;6.40;;;20.90;91.40;;;;;;5065688;28;20653;-82
2021/09/04 09:35:50;;;;;;;6.73;6.20;;;21.00;91.50;;;;;;5071597;28;20629;-82
2021/09/04 09:38:19;;;;;;;6.60;6.00;;;21.00;92.30;;;;;;5071510;28;20676;-82
2021/09/04 09:40:47;;;;;;;6.30;5.70;;;21.20;91.40;;;;;;5071943;28;20623;-82
2021/09/04 09:43:18;;;;;;;6.90;6.20;;;21.30;90.70;;;;;;5071871;28;20624;-81
2021/09/04 09:45:48;;;;;;;6.37;5.83;;;21.40;90.60;;;;;;5068335;28;20661;-82
2021/09/04 09:48:17;;;;;;;5.23;4.73;;;21.60;87.90;;;;;;5070066;28;21025;-81
2021/09/04 09:50:45;;;;;;;5.70;5.20;;;21.60;88.20;;;;;;5070019;28;20640;-81
2021/09/04 09:53:12;;;;;;;6.53;5.83;;;21.60;86.00;;;;;;5071177;28;20616;-81
2021/09/04 09:55:43;;;;;;;6.80;6.20;;;21.70;86.90;;;;;;5071566;28;20624;-80
2021/09/04 09:58:11;;;;;;;6.17;5.60;;;21.80;88.00;;;;;;5071752;28;20630;-81
2021/09/04 10:00:40;;;;;;;6.13;5.63;;;22.00;84.90;;;;;;5071058;28;20613;-81
2021/09/04 10:03:08;;;;;;;7.43;5.47;;;22.00;84.70;;;;;;5071188;28;20616;-81
2021/09/04 10:05:35;;;;;;;7.90;5.70;;;22.00;82.60;;;;;;5074645;28;20653;-81
2021/09/04 10:08:02;;;;;;;6.13;5.17;;;22.00;83.60;;;;;;5080876;28;20662;-82
2021/09/04 10:10:31;;;;;;;7.00;4.97;;;22.10;86.40;;;;;;5091712;28;20652;-81
2021/09/04 10:12:59;;;;;;;5.57;5.07;;;22.30;83.80;;;;;;5091452;28;21148;-82
2021/09/04 10:15:30;;;;;;;6.00;5.50;;;22.40;81.60;;;;;;5091423;28;20631;-82
2021/09/04 10:18:01;;;;;;;7.90;4.77;;;22.50;80.30;;;;;;5091072;28;20613;-81
2021/09/04 10:20:30;;;;;;;4.67;4.27;;;22.50;81.50;;;;;;5091518;28;20623;-81
2021/09/04 10:22:58;;;;;;;4.63;4.23;;;22.50;81.20;;;;;;5074823;28;21009;-81
2021/09/04 10:25:27;;;;;;;5.17;4.67;;;22.60;77.80;;;;;;5070351;28;20689;-82
2021/09/04 10:27:58;;;;;;;5.23;4.57;;;22.60;77.50;;;;;;5070930;28;21232;-81
2021/09/04 10:30:29;;;;;;;4.43;4.10;;;22.70;75.20;;;;;;5070608;28;20620;-80
2021/09/04 10:33:08;;;;;;;7.07;6.40;;;22.80;73.80;;;;;;5068109;28;21061;-81
2021/09/04 10:35:44;;;;;;;5.40;4.90;;;22.80;74.00;;;;;;5070505;28;20627;-82
2021/09/04 10:38:24;;;;;;;6.13;5.53;;;23.00;74.90;;;;;;5070833;28;21080;-82
2021/09/04 10:41:18;;;;;;;6.27;5.60;;;23.10;74.50;;;;;;5056273;28;20674;-83
2021/09/04 10:43:51;;;;;;;4.93;4.53;;;23.10;76.70;;;;;;5070192;28;20662;-83
2021/09/04 10:46:20;;;;;;;4.70;4.30;;;23.20;76.10;;;;;;5070621;28;20676;-82
2021/09/04 10:49:06;;;;;;;5.70;5.20;;;23.20;74.60;;;;;;5070702;28;20617;-82
2021/09/04 10:51:51;;;;;;;6.60;4.70;;;23.20;77.90;;;;;;5066826;28;20660;-82
2021/09/04 10:54:38;;;;;;;5.83;5.20;;;23.30;77.60;;;;;;5069501;28;20976;-80
2021/09/04 10:57:19;;;;;;;5.17;4.77;;;23.40;76.40;;;;;;5070355;28;20748;-81
2021/09/04 11:00:10;;;;;;;5.43;4.93;;;23.40;72.70;;;;;;5067489;28;20628;-81
2021/09/04 11:02:44;;;;;;;4.83;4.43;;;23.40;74.30;;;;;;5054052;28;20617;-82
2021/09/04 11:05:56;;;;;;;4.93;4.53;;;23.60;73.20;;;;;;5070423;28;20652;-83
2021/09/04 11:08:39;;;;;;;9.00;8.10;;;23.70;71.70;;;;;;5070455;28;20668;-82
2021/09/04 11:11:35;;;;;;;5.43;4.87;;;23.60;71.90;;;;;;5070553;28;20640;-83
2021/09/04 11:14:15;;;;;;;5.30;4.83;;;23.80;70.10;;;;;;5070083;28;20653;-83
2021/09/04 11:16:47;;;;;;;5.80;5.30;;;23.60;68.50;;;;;;5054588;28;21027;-81
2021/09/04 11:19:17;;;;;;;6.10;5.60;;;23.70;69.90;;;;;;5070036;28;21165;-82
2021/09/04 11:21:58;;;;;;;5.47;5.07;;;23.80;68.80;;;;;;5070215;28;20978;-82
2021/09/04 11:24:32;;;;;;;4.83;4.37;;;24.10;68.00;;;;;;5065122;28;20624;-83
2021/09/04 11:27:07;;;;;;;5.43;4.93;;;24.30;67.80;;;;;;5068658;28;20665;-82
2021/09/04 11:29:39;;;;;;;5.13;4.70;;;24.40;63.90;;;;;;5069821;28;20710;-82
2021/09/04 11:32:06;;;;;;;4.60;4.20;;;24.40;61.70;;;;;;5067087;28;20623;-82
2021/09/04 11:34:34;;;;;;;5.57;5.07;;;24.60;61.10;;;;;;5069832;28;20664;-82
2021/09/04 11:37:23;;;;;;;6.70;4.70;;;24.60;61.00;;;;;;5069656;28;20690;-83
2021/09/04 11:39:54;;;;;;;6.43;3.80;;;24.90;62.70;;;;;;5070001;28;20621;-82
2021/09/04 11:42:22;;;;;;;4.63;4.33;;;25.20;58.90;;;;;;5067356;28;20629;-83
2021/09/04 11:45:05;;;;;;;5.03;4.43;;;25.50;57.90;;;;;;5069908;28;20626;-83
2021/09/04 11:47:51;;;;;;;5.90;4.30;;;25.90;58.50;;;;;;5070181;28;20630;-86
2021/09/04 11:50:33;;;;;;;5.27;4.57;;;25.90;58.00;;;;;;5072486;28;20633;-83
2021/09/04 11:53:15;;;;;;;4.83;4.33;;;26.30;56.20;;;;;;5058727;28;20704;-83
2021/09/04 11:55:43;;;;;;;4.50;4.20;;;26.90;55.00;;;;;;5053579;28;20645;-83
2021/09/04 11:58:16;;;;;;;4.27;3.97;;;27.50;53.00;;;;;;5053452;28;20676;-83
2021/09/04 12:00:44;;;;;;;4.03;3.70;;;26.80;55.30;;;;;;5054032;28;20614;-83
2021/09/04 12:03:12;;;;;;;3.73;3.43;;;26.40;56.60;;;;;;5053817;28;20632;-83
2021/09/04 12:05:44;;;;;;;5.03;3.87;;;26.10;57.20;;;;;;5053214;28;21325;-82
2021/09/04 12:08:13;;;;;;;4.17;3.87;;;25.70;57.10;;;;;;5053647;28;20704;-83
2021/09/04 12:10:43;;;;;;;4.93;4.53;;;25.40;58.20;;;;;;5053244;28;20602;-82
2021/09/04 12:13:12;;;;;;;4.53;4.23;;;25.30;57.00;;;;;;5053835;28;20971;-83
2021/09/04 12:15:41;;;;;;;4.87;4.47;;;25.20;56.70;;;;;;5053499;28;20633;-82
2021/09/04 12:18:09;;;;;;;4.77;4.37;;;25.00;56.60;;;;;;5053443;28;20729;-83
2021/09/04 12:20:39;;;;;;;4.60;4.20;;;25.00;57.50;;;;;;5053336;28;20634;-83
2021/09/04 12:23:14;;;;;;;4.40;4.00;;;24.90;58.10;;;;;;5070221;28;20981;-82
2021/09/04 12:25:43;;;;;;;4.60;4.27;;;24.60;57.80;;;;;;5073235;28;20656;-83
2021/09/04 12:28:12;;;;;;;4.83;4.43;;;24.90;56.90;;;;;;5073372;28;20598;-84
2021/09/04 12:31:01;;;;;;;5.00;4.13;;;24.90;56.90;;;;;;5073315;28;20625;-83
2021/09/04 12:33:32;;;;;;;4.93;4.30;;;24.60;56.60;;;;;;5054998;28;21000;-83
2021/09/04 12:36:01;;;;;;;4.13;3.83;;;24.50;58.30;;;;;;5052552;28;20699;-83
2021/09/04 12:38:30;;;;;;;5.10;4.70;;;24.50;59.30;;;;;;5053266;28;20614;-83
2021/09/04 12:41:13;;;;;;;4.80;4.40;;;24.40;59.20;;;;;;5052587;28;21200;-83
2021/09/04 12:43:56;;;;;;;4.37;4.07;;;24.50;58.10;;;;;;5052192;28;20610;-83
2021/09/04 12:46:35;;;;;;;4.97;4.53;;;24.40;57.50;;;;;;5052321;28;21264;-83